Time;durP1;ratioP1;P1;durP2;ratioP2;P2;SDS_P1;SDS_P2;PMS_P1;PMS_P2;Temp;Humidity;BMP_temperature;BMP_pressure;BME280_temperature;BME280_humidity;BME280_pressure;Samples;Min_cycle;Max_cycle;Signal;HPM_P1;HPM_P2
2023/06/27 00:01:54;;;;;;;6.75;5.53;;;;;;;28.19;51.76;100841.88;5093623;28;20044;-56
2023/06/27 00:04:23;;;;;;;6.60;5.30;;;;;;;28.19;51.63;100841.88;5093533;28;20400;-56
2023/06/27 00:06:51;;;;;;;8.02;6.32;;;;;;;28.20;51.88;100829.97;5093434;28;20048;-56
2023/06/27 00:09:18;;;;;;;8.25;6.22;;;;;;;28.20;51.91;100832.69;5093278;28;20040;-57
2023/06/27 00:11:45;;;;;;;7.15;5.93;;;;;;;28.20;51.75;100827.25;5093448;28;20051;-57
2023/06/27 00:14:13;;;;;;;5.85;5.22;;;;;;;28.20;51.60;100832.69;5093522;28;20040;-57
2023/06/27 00:16:41;;;;;;;6.45;5.47;;;;;;;28.22;52.00;100825.16;5093324;28;20059;-57
2023/06/27 00:19:10;;;;;;;6.28;4.97;;;;;;;28.20;51.54;100828.09;5093282;28;20056;-57
2023/06/27 00:21:38;;;;;;;6.25;5.63;;;;;;;28.21;51.63;100829.78;5093490;28;20048;-57
2023/06/27 00:24:05;;;;;;;6.53;5.32;;;;;;;28.20;51.42;100819.09;5093275;28;20055;-57
2023/06/27 00:26:34;;;;;;;7.30;5.43;;;;;;;28.20;51.53;100819.94;5093161;28;20063;-57
2023/06/27 00:29:02;;;;;;;7.70;6.18;;;;;;;28.22;51.97;100825.16;5091595;28;20514;-57
2023/06/27 00:31:29;;;;;;;6.75;5.70;;;;;;;28.21;51.51;100827.06;5092691;28;20067;-57
2023/06/27 00:33:58;;;;;;;7.75;6.15;;;;;;;28.22;51.86;100822.44;5093300;28;20056;-57
2023/06/27 00:36:25;;;;;;;6.70;5.47;;;;;;;28.21;51.91;100816.16;5091498;28;20052;-57
2023/06/27 00:38:52;;;;;;;6.25;5.50;;;;;;;28.20;51.89;100808.19;5091574;28;20048;-57
2023/06/27 00:41:20;;;;;;;6.50;5.47;;;;;;;28.20;51.51;100813.66;5092991;28;20419;-57
2023/06/27 00:43:47;;;;;;;8.50;6.07;;;;;;;28.20;51.51;100806.31;5091647;28;20075;-57
2023/06/27 00:46:30;;;;;;;7.45;5.35;;;;;;;28.22;51.44;100803.41;5091800;28;20106;-57
2023/06/27 00:48:58;;;;;;;6.88;5.65;;;;;;;28.21;51.45;100801.72;5091438;28;20048;-57
2023/06/27 00:51:26;;;;;;;7.80;6.25;;;;;;;28.20;51.88;100800.88;5093212;28;20055;-57
2023/06/27 00:53:53;;;;;;;7.85;6.10;;;;;;;28.20;51.52;100789.16;5094859;28;20063;-57
2023/06/27 00:56:21;;;;;;;6.75;5.25;;;;;;;28.20;51.91;100797.31;5096588;28;20055;-57
2023/06/27 00:58:48;;;;;;;5.80;5.10;;;;;;;28.21;51.52;100785.38;5095060;28;20048;-57
2023/06/27 01:01:16;;;;;;;6.32;5.53;;;;;;;28.20;51.95;100789.16;5096451;28;20044;-57
2023/06/27 01:03:43;;;;;;;5.88;5.28;;;;;;;28.22;51.54;100787.06;5096419;28;20047;-57
2023/06/27 01:06:28;;;;;;;6.35;5.65;;;;;;;28.21;51.93;100788.09;5094892;28;20056;-57
2023/06/27 01:09:21;;;;;;;6.10;5.47;;;;;;;28.20;52.07;100781.81;5096600;28;20055;-57
2023/06/27 01:12:00;;;;;;;7.28;5.78;;;;;;;28.22;51.99;100787.06;5096833;28;20044;-57
2023/06/27 01:14:30;;;;;;;7.13;5.78;;;;;;;28.20;51.58;100789.16;5096410;28;20387;-57
2023/06/27 01:16:59;;;;;;;6.78;5.38;;;;;;;28.20;51.90;100781.81;5095006;28;20480;-56
2023/06/27 01:19:29;;;;;;;7.32;5.70;;;;;;;28.20;52.17;100776.38;5094675;28;20067;-57
2023/06/27 01:22:08;;;;;;;6.17;5.57;;;;;;;28.21;52.19;100779.94;5094985;28;20377;-57
2023/06/27 01:24:36;;;;;;;6.65;5.60;;;;;;;28.20;52.07;100778.25;5096334;28;20291;-57
2023/06/27 01:27:04;;;;;;;7.47;5.90;;;;;;;28.20;51.85;100778.25;5096283;28;20063;-57
2023/06/27 01:29:33;;;;;;;6.10;5.15;;;;;;;28.19;52.20;100771.94;5096405;28;20052;-57
2023/06/27 01:32:29;;;;;;;7.13;5.85;;;;;;;28.21;51.98;100775.31;5095797;28;20056;-57
2023/06/27 01:35:13;;;;;;;6.20;5.60;;;;;;;28.20;52.11;100770.09;5087014;28;20059;-57
2023/06/27 01:37:58;;;;;;;7.18;5.70;;;;;;;28.19;51.66;100766.50;5094633;28;20052;-57
2023/06/27 01:40:29;;;;;;;6.80;5.53;;;;;;;28.20;51.82;100768.22;5095805;28;20040;-57
2023/06/27 01:43:06;;;;;;;6.20;5.07;;;;;;;28.21;51.95;100764.44;5096071;28;20052;-57
2023/06/27 01:45:35;;;;;;;7.03;5.25;;;;;;;28.20;51.70;100761.94;5094523;28;20389;-57
2023/06/27 01:48:02;;;;;;;6.78;5.65;;;;;;;28.20;52.00;100760.03;5095752;28;20047;-57
2023/06/27 01:50:30;;;;;;;7.22;5.88;;;;;;;28.20;51.84;100760.03;5095585;28;20051;-57
2023/06/27 01:52:58;;;;;;;6.82;5.95;;;;;;;28.19;52.19;100752.88;5095299;28;20060;-57
2023/06/27 01:55:26;;;;;;;6.88;5.95;;;;;;;28.19;51.85;100754.78;5095596;28;20066;-59
2023/06/27 01:57:54;;;;;;;6.80;5.78;;;;;;;28.19;52.08;100752.03;5095078;28;20058;-60
2023/06/27 02:00:22;;;;;;;5.97;5.30;;;;;;;28.18;52.29;100759.38;5094052;28;20044;-60
2023/06/27 02:02:49;;;;;;;9.55;5.35;;;;;;;28.17;52.10;100762.31;5095557;28;20074;-60
2023/06/27 02:05:17;;;;;;;7.70;6.03;;;;;;;28.15;52.14;100758.91;5093560;28;20067;-58
2023/06/27 02:07:46;;;;;;;8.38;5.70;;;;;;;28.14;52.29;100762.69;5093925;28;20048;-58
2023/06/27 02:10:13;;;;;;;6.13;5.25;;;;;;;28.12;52.63;100762.88;5094048;28;20048;-57
2023/06/27 02:12:40;;;;;;;7.15;6.22;;;;;;;28.11;52.54;100761.16;5095324;28;20071;-58
2023/06/27 02:15:08;;;;;;;6.97;5.97;;;;;;;28.09;52.17;100761.38;5093779;28;20044;-57
2023/06/27 02:17:36;;;;;;;7.63;5.60;;;;;;;28.09;52.78;100760.53;5094962;28;20534;-58
2023/06/27 02:20:04;;;;;;;6.60;5.38;;;;;;;28.06;52.76;100753.59;5094801;28;20051;-58
2023/06/27 02:22:33;;;;;;;6.00;5.32;;;;;;;28.06;52.79;100756.31;5095121;28;20488;-57
2023/06/27 02:25:01;;;;;;;7.57;5.88;;;;;;;28.05;52.49;100760.06;5095028;28;20039;-58
2023/06/27 02:27:28;;;;;;;6.72;5.80;;;;;;;28.04;52.94;100752.94;5094842;28;20048;-57
2023/06/27 02:29:55;;;;;;;6.10;5.45;;;;;;;28.04;52.76;100752.09;5094737;28;20051;-58
2023/06/27 02:32:23;;;;;;;7.95;6.10;;;;;;;28.03;53.04;100751.25;5094631;28;20052;-59
2023/06/27 02:34:50;;;;;;;6.15;5.53;;;;;;;28.03;53.20;100756.69;5094803;28;20044;-60
2023/06/27 02:37:18;;;;;;;7.38;6.13;;;;;;;28.03;52.86;100762.13;5094741;28;20382;-60
2023/06/27 02:39:45;;;;;;;8.43;5.82;;;;;;;28.03;52.85;100751.25;5094556;28;20043;-58
2023/06/27 02:42:12;;;;;;;7.63;5.93;;;;;;;28.04;52.88;100752.09;5093506;28;20048;-58
2023/06/27 02:44:40;;;;;;;6.25;5.35;;;;;;;28.04;53.18;100757.56;5094444;28;20385;-58
2023/06/27 02:47:07;;;;;;;7.10;5.30;;;;;;;28.04;53.29;100755.66;5094794;28;20052;-58
2023/06/27 02:49:34;;;;;;;7.53;5.57;;;;;;;28.03;53.24;100758.56;5094426;28;20040;-57
2023/06/27 02:52:02;;;;;;;8.27;5.93;;;;;;;28.03;52.93;100753.97;5093270;28;20055;-59
2023/06/27 02:54:29;;;;;;;6.07;5.28;;;;;;;28.02;53.17;100754.16;5093031;28;20051;-60
2023/06/27 02:56:57;;;;;;;7.22;6.43;;;;;;;28.02;52.86;100754.16;5093180;28;20055;-60
2023/06/27 02:59:25;;;;;;;7.00;5.95;;;;;;;28.02;52.99;100756.88;5092985;28;20052;-60
2023/06/27 03:01:55;;;;;;;7.85;5.70;;;;;;;28.01;52.82;100764.22;5093084;28;20506;-58
2023/06/27 03:04:24;;;;;;;7.45;5.45;;;;;;;28.01;52.98;100761.50;5092583;28;20496;-57
2023/06/27 03:06:52;;;;;;;7.75;6.18;;;;;;;28.00;53.07;100754.38;5092869;28;20048;-57
2023/06/27 03:09:20;;;;;;;6.90;6.20;;;;;;;28.00;52.83;100754.38;5092396;28;20055;-57
2023/06/27 03:11:47;;;;;;;6.93;5.93;;;;;;;28.01;52.70;100756.03;5092827;28;20511;-59
2023/06/27 03:14:21;;;;;;;8.18;6.20;;;;;;;28.00;53.32;100757.09;5094176;28;20071;-60
2023/06/27 03:16:54;;;;;;;6.93;5.50;;;;;;;28.01;52.78;100758.75;5091856;28;20052;-60
2023/06/27 03:19:21;;;;;;;7.55;5.63;;;;;;;28.00;52.90;100757.09;5092582;28;20040;-60
2023/06/27 03:22:06;;;;;;;6.68;5.72;;;;;;;27.99;52.48;100763.53;5092928;28;20071;-59
2023/06/27 03:24:33;;;;;;;6.38;5.07;;;;;;;27.98;52.62;100761.84;5092555;28;20066;-60
2023/06/27 03:27:00;;;;;;;7.80;5.50;;;;;;;27.98;52.30;100763.75;5093931;28;20403;-60
2023/06/27 03:29:28;;;;;;;6.57;5.90;;;;;;;27.97;52.66;100759.34;5093974;28;20496;-60
2023/06/27 03:31:57;;;;;;;6.45;5.78;;;;;;;27.98;52.65;100758.31;5093596;28;20056;-59
2023/06/27 03:34:27;;;;;;;6.80;6.03;;;;;;;27.96;52.06;100758.50;5092540;28;20530;-58
2023/06/27 03:36:54;;;;;;;7.03;5.85;;;;;;;27.96;52.25;100755.78;5092423;28;20510;-57
2023/06/27 03:39:22;;;;;;;7.03;5.22;;;;;;;27.97;52.71;100759.34;5092346;28;20055;-57
2023/06/27 03:41:49;;;;;;;6.70;6.00;;;;;;;27.97;52.55;100756.63;5093933;28;20055;-58
2023/06/27 03:44:17;;;;;;;6.72;6.03;;;;;;;27.99;52.84;100765.41;5093539;28;20412;-57
2023/06/27 03:46:44;;;;;;;7.07;5.80;;;;;;;27.97;52.50;100746.56;5092483;28;20503;-57
2023/06/27 03:49:11;;;;;;;6.68;5.95;;;;;;;27.98;52.59;100759.13;5093422;28;20047;-58
2023/06/27 03:51:40;;;;;;;6.25;5.07;;;;;;;27.99;52.45;100754.53;5092330;28;20484;-60
2023/06/27 03:54:09;;;;;;;6.05;5.45;;;;;;;27.99;52.76;100749.94;5093427;28;20075;-60
2023/06/27 03:56:36;;;;;;;6.38;5.65;;;;;;;27.99;52.47;100755.38;5092063;28;20048;-60
2023/06/27 03:59:05;;;;;;;6.80;5.70;;;;;;;27.98;52.17;100758.31;5093428;28;20039;-60
2023/06/27 04:01:34;;;;;;;5.80;5.05;;;;;;;27.99;52.40;100760.81;5092097;28;20052;-58
2023/06/27 04:04:01;;;;;;;6.18;5.00;;;;;;;27.99;52.03;100755.38;5091965;28;20059;-58
2023/06/27 04:06:29;;;;;;;6.57;5.22;;;;;;;27.96;52.01;100758.50;5093263;28;20047;-58
2023/06/27 04:08:57;;;;;;;6.53;5.43;;;;;;;27.96;52.09;100758.50;5093128;28;20060;-57
2023/06/27 04:11:24;;;;;;;6.63;5.30;;;;;;;27.98;51.76;100761.03;5092248;28;20055;-58
2023/06/27 04:13:56;;;;;;;5.75;4.97;;;;;;;27.97;51.77;100756.63;5091967;28;20044;-57
2023/06/27 04:16:24;;;;;;;5.85;5.18;;;;;;;27.97;51.96;100752.03;5091797;28;20059;-58
2023/06/27 04:18:51;;;;;;;5.68;4.88;;;;;;;27.97;51.72;100759.34;5093135;28;20051;-58
2023/06/27 04:21:19;;;;;;;5.80;5.15;;;;;;;27.98;52.14;100763.75;5092804;28;20040;-58
2023/06/27 04:23:46;;;;;;;6.55;5.25;;;;;;;27.98;52.23;100761.03;5091798;28;20052;-57
2023/06/27 04:26:17;;;;;;;6.15;5.50;;;;;;;27.98;52.26;100761.03;5093473;28;20480;-58
2023/06/27 04:28:47;;;;;;;7.53;4.90;;;;;;;27.97;52.01;100760.19;5096165;28;20044;-58
2023/06/27 04:31:15;;;;;;;6.43;5.68;;;;;;;27.98;52.34;100761.03;5097183;28;20055;-59
2023/06/27 04:33:43;;;;;;;5.72;5.20;;;;;;;27.98;52.56;100756.41;5096990;28;20403;-60
2023/06/27 04:36:15;;;;;;;6.10;5.30;;;;;;;27.98;52.35;100756.41;5097015;28;20048;-60
2023/06/27 04:38:44;;;;;;;7.22;5.45;;;;;;;27.98;52.66;100756.41;5097067;28;20044;-60
2023/06/27 04:41:12;;;;;;;6.95;5.65;;;;;;;27.99;52.79;100760.81;5096945;28;20043;-58
2023/06/27 04:43:39;;;;;;;7.18;5.72;;;;;;;27.98;52.63;100758.31;5096940;28;20059;-57
2023/06/27 04:46:07;;;;;;;6.45;5.43;;;;;;;27.97;52.65;100767.50;5096790;28;20040;-58
2023/06/27 04:48:34;;;;;;;6.28;5.43;;;;;;;27.97;52.39;100762.06;5096787;28;20051;-57
2023/06/27 04:51:03;;;;;;;6.68;5.70;;;;;;;27.97;52.37;100762.06;5095342;28;20494;-58
2023/06/27 04:53:32;;;;;;;7.25;6.13;;;;;;;27.96;52.66;100766.66;5097160;28;20044;-57
2023/06/27 04:55:59;;;;;;;5.78;4.95;;;;;;;27.96;52.50;100761.22;5096583;28;20055;-58
2023/06/27 04:58:27;;;;;;;6.57;5.78;;;;;;;27.97;52.64;100770.22;5096607;28;20494;-58
2023/06/27 05:00:54;;;;;;;6.25;5.57;;;;;;;27.96;52.67;100761.22;5096611;28;20043;-58
2023/06/27 05:03:21;;;;;;;7.68;5.93;;;;;;;27.98;52.95;100769.19;5096461;28;20066;-60
2023/06/27 05:05:49;;;;;;;6.68;5.93;;;;;;;27.96;52.79;100761.22;5096518;28;20055;-60
2023/06/27 05:08:19;;;;;;;5.93;5.30;;;;;;;27.97;52.72;100768.34;5094967;28;20063;-60
2023/06/27 05:10:46;;;;;;;6.65;5.80;;;;;;;27.97;53.08;100762.91;5096277;28;20047;-61
2023/06/27 05:13:16;;;;;;;6.95;6.15;;;;;;;27.98;52.96;100763.75;5096354;28;20044;-58
2023/06/27 05:15:43;;;;;;;7.18;5.72;;;;;;;27.98;52.94;100764.59;5095984;28;20067;-57
2023/06/27 05:18:14;;;;;;;8.18;5.65;;;;;;;27.98;52.95;100752.84;5096076;28;20052;-58
2023/06/27 05:20:41;;;;;;;6.68;5.97;;;;;;;27.97;52.68;100762.91;5096023;28;20051;-57
2023/06/27 05:23:09;;;;;;;6.45;5.70;;;;;;;28.00;52.63;100764.41;5096060;28;20051;-60
2023/06/27 05:25:37;;;;;;;7.28;5.82;;;;;;;27.99;52.43;100766.25;5096120;28;20048;-60
2023/06/27 05:28:05;;;;;;;7.15;5.70;;;;;;;27.99;52.74;100766.25;5096044;28;20070;-60
2023/06/27 05:30:32;;;;;;;5.85;5.15;;;;;;;27.99;52.70;100766.25;5095565;28;20353;-61
2023/06/27 05:33:04;;;;;;;6.78;6.07;;;;;;;27.99;52.65;100760.81;5095932;28;20044;-60
2023/06/27 05:35:32;;;;;;;6.03;5.43;;;;;;;27.99;52.88;100771.69;5095904;28;20059;-60
2023/06/27 05:37:59;;;;;;;6.68;5.97;;;;;;;28.00;52.50;100765.25;5095830;28;20083;-60
2023/06/27 05:40:28;;;;;;;6.82;5.82;;;;;;;28.00;52.81;100767.97;5094568;28;20055;-60
2023/06/27 05:42:55;;;;;;;6.28;5.00;;;;;;;27.99;52.61;100766.25;5095593;28;20044;-60
2023/06/27 05:45:23;;;;;;;6.32;5.50;;;;;;;28.00;52.91;100767.97;5095571;28;20479;-61
2023/06/27 05:47:50;;;;;;;6.13;5.28;;;;;;;28.00;52.96;100762.53;5095671;28;20044;-61
2023/06/27 05:50:18;;;;;;;6.78;5.40;;;;;;;28.01;52.87;100766.94;5095576;28;20503;-61
2023/06/27 05:52:45;;;;;;;6.72;5.22;;;;;;;28.00;52.67;100767.13;5095746;28;20047;-58
2023/06/27 05:55:13;;;;;;;6.10;5.20;;;;;;;28.02;52.67;100767.78;5095580;28;20067;-58
2023/06/27 05:57:40;;;;;;;5.05;4.20;;;;;;;28.01;52.46;100766.94;5095488;28;20040;-58
2023/06/27 06:00:10;;;;;;;5.43;4.93;;;;;;;28.01;52.58;100763.38;5095218;28;20048;-60
2023/06/27 06:02:38;;;;;;;5.75;4.75;;;;;;;28.01;52.29;100769.66;5094369;28;20499;-58
2023/06/27 06:05:09;;;;;;;7.00;5.57;;;;;;;28.01;52.59;100785.97;5095342;28;20058;-58
2023/06/27 06:07:43;;;;;;;5.28;4.63;;;;;;;28.01;52.31;100783.25;5095337;28;20048;-58
2023/06/27 06:10:12;;;;;;;5.60;5.05;;;;;;;28.02;52.19;100789.53;5095071;28;20055;-58
2023/06/27 06:12:40;;;;;;;6.05;5.05;;;;;;;28.02;52.72;100792.25;5095244;28;20048;-58
2023/06/27 06:15:07;;;;;;;6.90;5.10;;;;;;;28.02;52.29;100784.94;5094954;28;20400;-57
2023/06/27 06:17:35;;;;;;;6.13;5.07;;;;;;;28.02;52.31;100787.66;5094910;28;20055;-58
2023/06/27 06:20:10;;;;;;;6.38;4.78;;;;;;;28.03;52.53;100788.50;5094889;28;20044;-58
2023/06/27 06:22:37;;;;;;;8.60;5.22;;;;;;;28.03;52.08;100792.06;5093834;28;20052;-60
2023/06/27 06:25:05;;;;;;;5.22;4.72;;;;;;;28.03;52.14;100783.91;5094952;28;20040;-60
2023/06/27 06:27:33;;;;;;;5.63;4.57;;;;;;;28.04;52.19;100793.78;5094958;28;20051;-60
2023/06/27 06:30:00;;;;;;;6.05;4.47;;;;;;;28.04;52.44;100790.22;5094685;28;20048;-60
2023/06/27 06:32:28;;;;;;;5.80;4.93;;;;;;;28.04;52.25;100785.59;5094779;28;20059;-61
2023/06/27 06:34:55;;;;;;;6.10;5.13;;;;;;;28.05;52.26;100783.72;5094777;28;20047;-61
2023/06/27 06:37:23;;;;;;;6.43;4.22;;;;;;;28.05;52.30;100783.72;5094642;28;20048;-60
2023/06/27 06:39:53;;;;;;;5.22;4.22;;;;;;;28.05;52.65;100787.28;5093270;28;20048;-58
2023/06/27 06:42:20;;;;;;;5.07;4.57;;;;;;;28.06;52.60;100785.41;5094474;28;20051;-60
2023/06/27 06:44:48;;;;;;;5.93;4.70;;;;;;;28.06;52.70;100790.84;5094612;28;20050;-58
2023/06/27 06:47:16;;;;;;;6.38;5.00;;;;;;;28.05;52.52;100795.44;5094553;28;20056;-58
2023/06/27 06:49:43;;;;;;;6.18;5.35;;;;;;;28.03;52.41;100794.78;5094326;28;20051;-58
2023/06/27 06:52:10;;;;;;;6.50;5.05;;;;;;;28.02;52.24;100792.25;5094092;28;20047;-58
2023/06/27 06:54:39;;;;;;;7.07;4.65;;;;;;;28.02;52.03;100790.38;5094302;28;20044;-58
2023/06/27 06:57:08;;;;;;;7.93;5.57;;;;;;;28.03;52.35;100794.78;5094115;28;20055;-58
2023/06/27 06:59:36;;;;;;;9.63;5.38;;;;;;;28.05;52.53;100783.72;5094211;28;20036;-58
2023/06/27 07:02:04;;;;;;;5.85;5.18;;;;;;;28.06;52.94;100788.13;5094301;28;20407;-58
2023/06/27 07:04:31;;;;;;;5.70;4.93;;;;;;;28.07;52.93;100778.91;5094085;28;20048;-58
2023/06/27 07:06:59;;;;;;;7.05;5.00;;;;;;;28.08;52.99;100778.75;5094057;28;20063;-58
2023/06/27 07:09:28;;;;;;;6.50;4.78;;;;;;;28.09;52.93;100782.31;5094032;28;20051;-58
2023/06/27 07:11:55;;;;;;;5.63;4.85;;;;;;;28.10;52.65;100781.25;5092513;28;20048;-59
2023/06/27 07:14:23;;;;;;;5.90;4.47;;;;;;;28.10;52.52;100776.66;5093453;28;20047;-59
2023/06/27 07:16:50;;;;;;;5.55;4.90;;;;;;;28.10;52.54;100778.53;5093497;28;20054;-59
2023/06/27 07:19:18;;;;;;;6.43;5.60;;;;;;;28.12;52.50;100778.38;5093243;28;20047;-59
2023/06/27 07:21:45;;;;;;;6.43;5.55;;;;;;;28.13;52.68;100778.16;5093487;28;20047;-59
2023/06/27 07:24:13;;;;;;;8.65;5.72;;;;;;;28.13;52.63;100778.16;5093633;28;20464;-59
2023/06/27 07:26:40;;;;;;;6.15;5.28;;;;;;;28.13;52.94;100780.88;5088515;28;20040;-59
2023/06/27 07:29:08;;;;;;;7.55;5.50;;;;;;;28.13;53.02;100772.72;5071875;28;20044;-59
2023/06/27 07:31:35;;;;;;;6.07;5.45;;;;;;;28.15;53.15;100780.69;5072781;28;20059;-49
2023/06/27 07:34:03;;;;;;;5.57;4.90;;;;;;;28.15;52.89;100772.53;5073041;28;20040;-52
2023/06/27 07:36:31;;;;;;;7.68;5.72;;;;;;;28.16;52.85;100774.22;5072379;28;20048;-52
2023/06/27 07:38:58;;;;;;;10.15;6.18;;;;;;;28.17;53.02;100775.91;5073129;28;20044;-48
2023/06/27 07:41:28;;;;;;;7.30;5.75;;;;;;;28.19;52.73;100774.66;5073078;28;20048;-59
2023/06/27 07:43:56;;;;;;;8.65;5.70;;;;;;;28.22;52.77;100776.16;5073240;28;20045;-59
2023/06/27 07:46:23;;;;;;;5.45;4.95;;;;;;;28.23;52.87;100772.41;5073137;28;20072;-59
2023/06/27 07:48:51;;;;;;;6.88;5.13;;;;;;;28.24;52.97;100774.13;5073083;28;20044;-59
2023/06/27 08:16:06;;;;;;;6.90;5.65;;;;;;;28.31;53.78;100764.13;5220799;23;20044;-61
2023/06/27 08:18:33;;;;;;;6.32;5.28;;;;;;;28.32;53.52;100771.28;4920091;29;20056;-61
2023/06/27 08:21:01;;;;;;;7.15;5.80;;;;;;;28.32;54.05;100769.38;4920205;29;20060;-62
2023/06/27 08:23:28;;;;;;;6.93;5.28;;;;;;;28.32;53.84;100769.38;4920252;29;20051;-62
2023/06/27 08:25:56;;;;;;;9.80;6.03;;;;;;;28.32;54.16;100765.81;4919054;29;20048;-55
2023/06/27 08:28:23;;;;;;;5.70;4.95;;;;;;;28.32;53.96;100766.66;4920235;29;20055;-56
2023/06/27 08:30:51;;;;;;;6.63;5.78;;;;;;;28.32;53.56;100761.22;4920428;29;20040;-56
2023/06/27 08:33:18;;;;;;;7.13;6.03;;;;;;;28.32;53.45;100760.38;4920335;29;20048;-56
2023/06/27 08:35:46;;;;;;;6.93;5.70;;;;;;;28.32;53.47;100752.22;4920371;29;20068;-56
2023/06/27 08:38:13;;;;;;;7.90;6.18;;;;;;;28.32;53.48;100750.31;4920216;29;20499;-56
2023/06/27 08:40:42;;;;;;;6.75;5.72;;;;;;;28.33;52.98;100751.16;4920195;29;20487;-54
2023/06/27 08:43:10;;;;;;;7.38;5.55;;;;;;;28.33;52.99;100751.16;4919881;29;20074;-55
2023/06/27 08:45:38;;;;;;;7.40;6.10;;;;;;;28.33;52.96;100748.44;4920072;29;20383;-54
2023/06/27 08:48:08;;;;;;;6.18;5.57;;;;;;;28.34;53.25;100756.41;4919967;29;20044;-55
2023/06/27 08:50:41;;;;;;;7.65;6.30;;;;;;;28.34;53.30;100747.41;4919801;29;20052;-54
2023/06/27 08:53:17;;;;;;;7.10;6.40;;;;;;;28.34;53.31;100748.25;4919438;29;20052;-55
2023/06/27 08:56:02;;;;;;;7.03;6.32;;;;;;;28.35;53.04;100747.19;4920056;29;20048;-62
2023/06/27 08:58:37;;;;;;;6.90;6.20;;;;;;;28.35;52.70;100751.81;4919843;29;20519;-62
2023/06/27 09:01:05;;;;;;;5.93;5.32;;;;;;;28.35;52.85;100747.19;4919905;29;20052;-62
2023/06/27 09:03:34;;;;;;;7.68;5.95;;;;;;;28.34;52.76;100745.53;4919302;29;20052;-62
2023/06/27 09:06:05;;;;;;;7.70;6.30;;;;;;;28.36;52.91;100750.81;4919853;29;20067;-55
2023/06/27 09:08:33;;;;;;;6.90;6.20;;;;;;;28.37;52.23;100748.94;4919610;29;20060;-56
2023/06/27 09:11:01;;;;;;;6.68;5.85;;;;;;;28.37;52.14;100746.22;4919591;29;20397;-56
2023/06/27 09:13:29;;;;;;;6.60;5.60;;;;;;;28.37;52.43;100747.06;4919220;29;20051;-54
2023/06/27 09:15:56;;;;;;;6.70;5.95;;;;;;;28.37;52.06;100757.94;4919359;29;20412;-55
2023/06/27 09:18:24;;;;;;;6.38;5.75;;;;;;;28.38;51.94;100747.91;4919369;29;20059;-56
2023/06/27 09:20:55;;;;;;;7.32;5.47;;;;;;;28.40;52.13;100751.25;4919372;29;20044;-55
2023/06/27 09:23:23;;;;;;;6.65;5.78;;;;;;;28.39;51.99;100744.97;4919207;29;20107;-56
2023/06/27 09:26:27;;;;;;;7.55;6.40;;;;;;;28.38;52.08;100743.28;4915706;29;20052;-62
2023/06/27 09:28:54;;;;;;;6.43;5.72;;;;;;;28.39;51.80;100746.84;4879319;29;20053;-62
2023/06/27 09:31:22;;;;;;;6.75;6.05;;;;;;;28.38;51.72;100743.28;4879228;29;20600;-62
2023/06/27 09:33:49;;;;;;;6.28;5.55;;;;;;;28.39;51.61;100747.69;4879216;29;20049;-62
2023/06/27 09:36:33;;;;;;;5.88;5.28;;;;;;;28.40;51.61;100743.09;4881298;29;20440;-54
2023/06/27 09:39:07;;;;;;;6.22;5.53;;;;;;;28.40;51.75;100749.41;4897691;29;20078;-56
2023/06/27 09:41:49;;;;;;;6.40;5.80;;;;;;;28.41;51.60;100736.63;4897470;29;20444;-55
2023/06/27 09:44:36;;;;;;;5.50;4.87;;;;;;;28.40;51.62;100741.22;4898073;29;20068;-55
2023/06/27 09:47:09;;;;;;;5.95;5.35;;;;;;;28.41;51.63;100731.19;4898127;29;20044;-56
2023/06/27 09:49:41;;;;;;;5.75;5.15;;;;;;;28.42;51.70;100733.69;4897874;29;20060;-56
2023/06/27 09:52:29;;;;;;;7.55;5.50;;;;;;;28.41;51.42;100732.00;4897984;29;20049;-56
2023/06/27 09:54:57;;;;;;;6.78;5.78;;;;;;;28.43;51.89;100729.94;4897995;29;20165;-62
2023/06/27 09:57:25;;;;;;;6.00;5.15;;;;;;;28.43;51.71;100726.38;4897808;29;20076;-62
2023/06/27 09:59:57;;;;;;;7.18;6.10;;;;;;;28.43;52.04;100734.53;4897804;29;20079;-61
2023/06/27 10:02:30;;;;;;;6.28;5.65;;;;;;;28.44;51.66;100731.63;4902650;29;20445;-62
2023/06/27 10:04:58;;;;;;;6.95;5.47;;;;;;;28.43;52.13;100729.94;4918518;29;20060;-62
2023/06/27 10:07:25;;;;;;;5.97;5.43;;;;;;;28.45;51.94;100724.31;4915915;29;20043;-62
2023/06/27 10:09:53;;;;;;;7.10;6.05;;;;;;;28.45;52.36;100718.84;4899600;29;20060;-55
2023/06/27 10:12:21;;;;;;;7.47;5.70;;;;;;;28.46;52.33;100717.81;4899344;29;20401;-55
2023/06/27 10:14:50;;;;;;;6.50;5.72;;;;;;;28.47;52.18;100720.31;4899500;29;20057;-54
2023/06/27 10:17:20;;;;;;;6.90;5.47;;;;;;;28.47;52.67;100709.44;4899414;29;20052;-56
2023/06/27 10:19:49;;;;;;;6.47;5.80;;;;;;;28.47;52.59;100704.00;4899523;29;20060;-55
2023/06/27 10:22:21;;;;;;;7.40;6.28;;;;;;;28.47;52.44;100706.72;4899450;29;20048;-56
2023/06/27 10:24:51;;;;;;;;;;;;;;;28.47;52.75;100701.25;4898489;29;20053;-62
2023/06/27 10:27:20;;;;;;;7.68;6.38;;;;;;;28.49;52.56;100701.94;4898988;29;19923;-62
2023/06/27 10:29:48;;;;;;;7.38;6.13;;;;;;;28.49;52.52;100696.47;4899353;29;20055;-62
2023/06/27 10:32:17;;;;;;;6.03;5.43;;;;;;;28.49;52.14;100691.03;4899291;29;20056;-62
2023/06/27 10:34:45;;;;;;;7.70;6.43;;;;;;;28.49;52.35;100696.47;4898883;29;20047;-62
2023/06/27 10:37:26;;;;;;;8.15;6.75;;;;;;;28.49;52.51;100684.75;4899152;29;20052;-62
2023/06/27 10:39:58;;;;;;;7.80;6.15;;;;;;;28.48;52.08;100686.63;4899337;29;20079;-62
2023/06/27 10:42:29;;;;;;;7.88;6.50;;;;;;;28.49;52.13;100685.59;4899347;29;20060;-62
2023/06/27 10:44:59;;;;;;;6.22;5.57;;;;;;;28.48;52.51;100683.91;4899137;29;20052;-62
2023/06/27 10:47:29;;;;;;;7.30;6.40;;;;;;;28.47;52.28;100684.94;4899071;29;20049;-62
2023/06/27 10:50:04;;;;;;;7.07;6.05;;;;;;;28.48;52.57;100678.47;4898809;29;20492;-62
2023/06/27 10:52:32;;;;;;;6.47;5.88;;;;;;;28.47;52.46;100679.47;4898734;29;20060;-62
2023/06/27 10:55:18;;;;;;;6.22;5.63;;;;;;;28.48;52.13;100675.75;4898416;29;20044;-62
2023/06/27 10:57:51;;;;;;;7.47;6.55;;;;;;;28.47;52.01;100668.59;4898546;29;20041;-61
2023/06/27 11:00:29;;;;;;;6.30;5.38;;;;;;;28.47;52.20;100665.88;4898164;29;20045;-59
2023/06/27 11:02:57;;;;;;;6.63;5.93;;;;;;;28.48;52.60;100673.00;4897921;29;20473;-58
2023/06/27 11:05:41;;;;;;;6.93;6.20;;;;;;;28.47;52.20;100663.13;4898160;29;20048;-55
2023/06/27 11:08:12;;;;;;;8.80;5.70;;;;;;;28.48;52.54;100659.41;4898775;29;20053;-55
2023/06/27 11:10:59;;;;;;;7.68;6.38;;;;;;;28.48;52.17;100667.56;4897786;29;20052;-54
2023/06/27 11:13:28;;;;;;;6.78;5.72;;;;;;;28.49;52.70;100660.25;4897834;29;20052;-54
2023/06/27 11:15:56;;;;;;;7.03;6.32;;;;;;;28.49;52.70;100658.34;4898646;29;20056;-55
2023/06/27 11:18:27;;;;;;;5.68;5.07;;;;;;;28.49;52.29;100657.50;4898645;29;20436;-55
2023/06/27 11:20:56;;;;;;;6.50;5.85;;;;;;;28.48;52.49;100650.38;4898316;29;20068;-55
2023/06/27 11:23:25;;;;;;;6.40;5.75;;;;;;;28.48;52.26;100651.22;4897683;29;20048;-54
2023/06/27 11:25:53;;;;;;;8.35;6.22;;;;;;;28.48;52.33;100645.78;4898347;29;20416;-58
2023/06/27 11:28:22;;;;;;;8.07;5.88;;;;;;;28.49;52.60;100636.56;4898402;29;20049;-58
2023/06/27 11:30:56;;;;;;;6.85;6.15;;;;;;;28.48;52.50;100637.63;4898495;29;20052;-58
2023/06/27 11:33:25;;;;;;;5.97;5.38;;;;;;;28.50;52.70;100640.13;4898522;29;20055;-58
2023/06/27 11:35:56;;;;;;;5.93;5.32;;;;;;;28.49;52.61;100622.94;4898751;29;20437;-58
2023/06/27 11:38:26;;;;;;;6.63;5.93;;;;;;;28.49;52.37;100622.94;4897692;29;20049;-58
2023/06/27 11:40:53;;;;;;;6.22;5.63;;;;;;;28.50;52.35;100631.97;4898529;29;20052;-58
2023/06/27 11:43:20;;;;;;;8.13;6.18;;;;;;;28.49;52.86;100631.13;4898445;29;20053;-58
2023/06/27 11:45:50;;;;;;;6.35;5.75;;;;;;;28.51;52.46;100615.41;4898296;29;20044;-56
2023/06/27 11:48:18;;;;;;;6.38;5.70;;;;;;;28.49;52.38;100603.88;4898275;29;20056;-54
2023/06/27 11:51:14;;;;;;;6.10;5.47;;;;;;;28.50;52.32;100594.66;4898369;29;20393;-54
2023/06/27 11:53:48;;;;;;;7.85;5.95;;;;;;;28.50;52.45;100600.13;4898064;29;20049;-55
2023/06/27 11:56:17;;;;;;;7.82;6.55;;;;;;;28.50;52.32;100596.56;4898273;29;20045;-55
2023/06/27 11:58:50;;;;;;;7.35;5.43;;;;;;;28.52;52.49;100594.47;4898190;29;20061;-56
2023/06/27 12:01:18;;;;;;;7.72;6.20;;;;;;;28.52;52.43;100594.47;4898254;29;20060;-55